This is the latest recevied weather packets stored in our database for station/object KK6LVQ-13. If no packets are shown the sender has not sent any weather packets the latest 10 day(s).
| Time | Temp. | Humidity | Pressure | Rain* | Wind** | Luminosity | Snow |
|---|---|---|---|---|---|---|---|
| 1777397619 | 15.56° C | 70% | 1025.2 hPa | 0 mm | - | 588 W/m² | - |
| 1777397316 | 15.56° C | 70% | 1025.1 hPa | 0 mm | - | 579 W/m² | - |
| 1777397007 | 16.11° C | 68% | 1025 hPa | 0 mm | - | 567 W/m² | - |
| 1777396704 | 15° C | 70% | 1025.2 hPa | 0 mm | - | 550 W/m² | - |
| 1777396400 | 15° C | 72% | 1025.1 hPa | 0 mm | - | 540 W/m² | - |
| 1777396097 | 15° C | 73% | 1025.1 hPa | 0 mm | - | 526 W/m² | - |
| 1777395788 | 14.44° C | 77% | 1025.1 hPa | 0 mm | - | 515 W/m² | - |
| 1777395483 | 13.89° C | 78% | 1025.2 hPa | 0 mm | - | 499 W/m² | - |
| 1777395180 | 13.89° C | 79% | 1025 hPa | 0 mm | - | 488 W/m² | - |
| 1777394877 | 13.33° C | 79% | 1025.2 hPa | 0 mm | - | 475 W/m² | - |
| 1777394573 | 13.33° C | 80% | 1025.3 hPa | 0 mm | - | 462 W/m² | - |
| 1777394270 | 12.78° C | 81% | 1025.2 hPa | 0 mm | - | 445 W/m² | - |
| 1777393966 | 12.78° C | 82% | 1025.1 hPa | 0 mm | - | 435 W/m² | - |
| 1777393665 | 12.78° C | 82% | 1025.1 hPa | 0 mm | - | 424 W/m² | - |
| 1777393361 | 12.22° C | 84% | 1024.9 hPa | 0 mm | - | 413 W/m² | - |
| 1777393058 | 12.22° C | 86% | 1025.1 hPa | 0 mm | - | 399 W/m² | - |
| 1777392753 | 11.67° C | 90% | 1025.3 hPa | 0 mm | - | 376 W/m² | - |
| 1777392450 | 11.11° C | 93% | 1025.1 hPa | 0 mm | - | 340 W/m² | - |
| 1777392145 | 10° C | 97% | 1024.9 hPa | 0 mm | - | 298 W/m² | - |
| 1777391841 | 10° C | 98% | 1024.9 hPa | 0 mm | - | 274 W/m² | - |
| 1777391536 | 10° C | 99% | 1025 hPa | 0 mm | - | 247 W/m² | - |
| 1777391233 | 9.44° C | 99% | 1025.2 hPa | 0 mm | - | 218 W/m² | - |
| 1777390930 | 8.89° C | 99% | 1025 hPa | 0 mm | - | 194 W/m² | - |
| 1777390626 | 8.89° C | 99% | 1024.8 hPa | 0 mm | - | 177 W/m² | - |
| 1777390322 | 8.33° C | 99% | 1024.8 hPa | 0 mm | - | 160 W/m² | - |
* Rain latest hour (hover to see other rain measurements)
** Current wind speed in m/s (hover to see current wind gust speed)